createdAt,value
2022-12-01T00:01:20.268Z,87.80
2022-12-01T00:03:47.526Z,87.78
2022-12-01T00:06:17.887Z,87.71
2022-12-01T00:09:04.913Z,88.36
2022-12-01T00:11:33.554Z,88.88
2022-12-01T00:14:01.494Z,88.20
2022-12-01T00:16:28.904Z,88.32
2022-12-01T00:18:56.212Z,89.14
2022-12-01T00:21:24.439Z,89.62
2022-12-01T00:23:54.243Z,89.87
2022-12-01T00:26:22.210Z,88.27
2022-12-01T00:28:57.508Z,88.01
2022-12-01T00:31:25.497Z,88.71
2022-12-01T00:33:53.023Z,88.70
2022-12-01T00:36:21.578Z,88.12
2022-12-01T00:38:52.104Z,89.16
2022-12-01T00:41:19.649Z,89.50
2022-12-01T00:43:47.630Z,89.02
2022-12-01T00:46:15.266Z,88.44
2022-12-01T00:48:42.491Z,89.04
2022-12-01T00:51:09.791Z,89.10
2022-12-01T00:53:37.038Z,88.57
2022-12-01T00:56:04.665Z,88.45
2022-12-01T00:58:31.955Z,89.24
2022-12-01T01:01:00.874Z,89.73
2022-12-01T01:03:29.612Z,89.81
2022-12-01T01:05:56.860Z,89.90
2022-12-01T01:08:24.032Z,90.22
2022-12-01T01:10:51.309Z,89.45
2022-12-01T01:13:18.529Z,88.95
2022-12-01T01:15:46.133Z,89.29
2022-12-01T01:18:13.414Z,88.74
2022-12-01T01:20:40.611Z,88.76
2022-12-01T01:23:07.890Z,89.03
2022-12-01T01:25:35.137Z,88.57
2022-12-01T01:28:02.438Z,88.31
2022-12-01T01:30:29.753Z,88.46
2022-12-01T01:32:56.960Z,88.26
2022-12-01T01:35:24.247Z,87.83
2022-12-01T01:37:51.841Z,87.23
2022-12-01T01:40:19.109Z,86.61
2022-12-01T01:42:46.380Z,87.12
2022-12-01T01:45:24.206Z,86.66
2022-12-01T01:47:53.165Z,86.88
2022-12-01T01:50:23.282Z,85.92
2022-12-01T01:53:00.166Z,85.18
2022-12-01T01:55:29.191Z,85.99
2022-12-01T01:57:56.705Z,86.61
2022-12-01T02:00:24.214Z,88.17
2022-12-01T02:02:51.890Z,87.87
2022-12-01T02:05:32.092Z,88.48
2022-12-01T02:07:59.475Z,88.29
2022-12-01T02:10:50.134Z,87.49
2022-12-01T02:13:48.258Z,87.19
2022-12-01T02:16:41.041Z,86.41
2022-12-01T02:19:46.179Z,85.66
2022-12-01T02:22:23.397Z,85.24
2022-12-01T02:24:55.738Z,84.74
2022-12-01T02:27:43.913Z,83.49
2022-12-01T02:30:14.448Z,83.39
2022-12-01T02:33:02.688Z,82.88
2022-12-01T02:35:34.715Z,82.94
2022-12-01T02:38:15.523Z,83.08
2022-12-01T02:41:11.361Z,82.74
2022-12-01T02:43:49.386Z,82.74
2022-12-01T02:46:29.900Z,82.58
2022-12-01T02:48:59.699Z,83.42
2022-12-01T02:51:31.054Z,83.73
2022-12-01T02:53:59.784Z,83.98
2022-12-01T02:56:27.252Z,84.50
2022-12-01T02:58:54.851Z,84.77
2022-12-01T03:01:31.241Z,84.39
2022-12-01T03:04:15.451Z,84.67
2022-12-01T03:07:08.521Z,84.75
2022-12-01T03:09:51.555Z,83.95
2022-12-01T03:12:47.955Z,84.30
2022-12-01T03:15:36.226Z,83.46
2022-12-01T03:18:13.655Z,83.10
2022-12-01T03:20:42.452Z,83.36
2022-12-01T03:23:15.672Z,83.53
2022-12-01T03:25:46.027Z,83.10
2022-12-01T03:28:23.325Z,83.10
2022-12-01T03:30:55.830Z,82.96
2022-12-01T03:33:34.444Z,82.82
2022-12-01T03:36:05.560Z,83.67
2022-12-01T03:38:36.104Z,84.55
2022-12-01T03:41:11.397Z,84.33
2022-12-01T03:43:42.358Z,85.04
2022-12-01T03:46:19.842Z,85.67
2022-12-01T03:48:47.292Z,86.55
2022-12-01T03:51:23.469Z,86.24
2022-12-01T03:53:55.466Z,86.97
2022-12-01T03:56:26.292Z,87.28
2022-12-01T03:58:56.974Z,85.99
2022-12-01T04:01:24.283Z,86.06
2022-12-01T04:03:51.578Z,86.12
2022-12-01T04:06:19.174Z,86.66
2022-12-01T04:08:46.366Z,86.54
2022-12-01T04:11:32.971Z,85.75
2022-12-01T04:14:00.306Z,86.14
2022-12-01T04:16:27.571Z,85.91
2022-12-01T04:18:54.821Z,86.17
2022-12-01T04:21:22.011Z,86.07
2022-12-01T04:24:01.319Z,86.93
2022-12-01T04:26:33.723Z,86.13
2022-12-01T04:29:01.839Z,86.91
2022-12-01T04:31:29.634Z,87.02
2022-12-01T04:33:58.151Z,87.30
2022-12-01T04:36:26.181Z,87.31
2022-12-01T04:38:53.480Z,87.84
2022-12-01T04:41:20.653Z,87.57
2022-12-01T04:43:48.303Z,86.88
2022-12-01T04:46:15.916Z,87.59
2022-12-01T04:48:43.565Z,87.49
2022-12-01T04:51:10.745Z,87.09
2022-12-01T04:53:38.231Z,88.19
2022-12-01T04:56:05.993Z,88.77
2022-12-01T04:58:33.893Z,88.10
2022-12-01T05:01:03.178Z,87.46
2022-12-01T05:03:30.445Z,87.10
2022-12-01T05:06:05.654Z,86.28
2022-12-01T05:08:34.206Z,86.93
2022-12-01T05:11:05.138Z,89.24
2022-12-01T05:13:32.328Z,88.90
2022-12-01T05:16:14.714Z,87.79
2022-12-01T05:18:42.374Z,87.22
2022-12-01T05:21:11.256Z,87.50
2022-12-01T05:23:39.219Z,88.41
2022-12-01T05:26:08.027Z,88.05
2022-12-01T05:28:35.672Z,87.45
2022-12-01T05:31:03.630Z,87.44
2022-12-01T05:33:31.031Z,87.19
2022-12-01T05:35:58.323Z,87.66
2022-12-01T05:38:25.614Z,87.45
2022-12-01T05:40:54.460Z,87.34
2022-12-01T05:43:28.533Z,86.93
2022-12-01T05:45:57.323Z,86.75
2022-12-01T05:48:25.189Z,87.78
2022-12-01T05:50:52.363Z,88.18
2022-12-01T05:53:20.097Z,88.13
2022-12-01T05:55:51.931Z,87.41
2022-12-01T05:58:19.311Z,88.66
2022-12-01T06:00:46.510Z,88.15
2022-12-01T06:03:14.246Z,88.14
2022-12-01T06:05:41.437Z,88.03
2022-12-01T06:08:08.683Z,88.42
2022-12-01T06:10:35.908Z,87.89
2022-12-01T06:13:03.177Z,87.24
2022-12-01T06:15:30.530Z,86.60
2022-12-01T06:18:00.940Z,87.02
2022-12-01T06:20:28.318Z,88.51
2022-12-01T06:22:55.514Z,89.15
2022-12-01T06:25:22.743Z,87.90
2022-12-01T06:27:49.945Z,86.55
2022-12-01T06:30:17.279Z,86.03
2022-12-01T06:32:44.569Z,85.37
2022-12-01T06:35:11.848Z,85.79
2022-12-01T06:37:39.135Z,86.22
2022-12-01T06:40:07.110Z,85.88
2022-12-01T06:42:34.329Z,86.16
2022-12-01T06:45:01.510Z,86.35
2022-12-01T06:47:29.119Z,86.11
2022-12-01T06:49:56.436Z,86.51
2022-12-01T06:52:23.746Z,86.53
2022-12-01T06:54:50.894Z,86.76
2022-12-01T06:57:18.687Z,86.57
2022-12-01T06:59:45.954Z,85.91
2022-12-01T07:02:13.777Z,85.82
2022-12-01T07:04:41.029Z,86.21
2022-12-01T07:07:08.534Z,86.77
2022-12-01T07:09:35.768Z,86.67
2022-12-01T07:12:03.050Z,86.26
2022-12-01T07:14:31.616Z,85.42
2022-12-01T07:17:00.069Z,85.89
2022-12-01T07:19:27.398Z,84.42
2022-12-01T07:21:54.621Z,84.40
2022-12-01T07:24:21.848Z,84.91
2022-12-01T07:26:49.327Z,84.34
2022-12-01T07:29:16.753Z,84.11
2022-12-01T07:31:44.256Z,83.79
2022-12-01T07:34:13.354Z,83.67
2022-12-01T07:36:40.583Z,84.11
2022-12-01T07:39:08.394Z,84.58
2022-12-01T07:41:35.857Z,85.18
2022-12-01T07:44:03.303Z,85.73
2022-12-01T07:46:30.830Z,84.94
2022-12-01T07:48:59.332Z,84.61
2022-12-01T07:51:27.202Z,84.19
2022-12-01T07:53:55.402Z,84.27
2022-12-01T07:56:23.451Z,84.76
2022-12-01T07:58:50.666Z,85.66
2022-12-01T08:01:20.511Z,85.48
2022-12-01T08:03:52.813Z,84.41
2022-12-01T08:06:20.686Z,84.60
2022-12-01T08:08:48.769Z,84.76
2022-12-01T08:11:19.142Z,86.03
2022-12-01T08:13:46.632Z,86.45
2022-12-01T08:16:18.713Z,86.92
2022-12-01T08:18:46.568Z,87.14
2022-12-01T08:21:15.928Z,87.05
2022-12-01T08:23:44.138Z,87.04
2022-12-01T08:26:13.982Z,87.39
2022-12-01T08:28:41.697Z,86.28
2022-12-01T08:31:18.076Z,85.99
2022-12-01T08:33:46.464Z,86.63
2022-12-01T08:36:14.261Z,87.28
2022-12-01T08:38:45.779Z,87.56
2022-12-01T08:41:13.628Z,86.97
2022-12-01T08:44:00.453Z,86.65
2022-12-01T08:46:31.735Z,87.63
2022-12-01T08:48:59.181Z,86.61
2022-12-01T08:51:26.930Z,87.40
2022-12-01T08:53:55.864Z,86.93
2022-12-01T08:56:38.578Z,86.70
2022-12-01T08:59:06.057Z,86.86
2022-12-01T09:01:33.648Z,86.25
2022-12-01T09:04:10.802Z,85.60
2022-12-01T09:06:41.710Z,85.50
2022-12-01T09:09:11.283Z,85.53
2022-12-01T09:11:39.050Z,85.08
2022-12-01T09:14:06.666Z,86.37
2022-12-01T09:16:34.260Z,85.76
2022-12-01T09:19:01.976Z,84.18
2022-12-01T09:21:32.439Z,84.78
2022-12-01T09:24:01.285Z,83.85
2022-12-01T09:26:29.070Z,83.64
2022-12-01T09:29:03.505Z,83.80
2022-12-01T09:31:30.943Z,84.26
2022-12-01T09:34:01.183Z,83.48
2022-12-01T09:36:29.852Z,83.16
2022-12-01T09:38:57.170Z,82.17
2022-12-01T09:41:28.300Z,83.66
2022-12-01T09:44:34.063Z,83.37
2022-12-01T09:47:19.101Z,83.42
2022-12-01T09:50:00.316Z,84.38
2022-12-01T09:52:29.901Z,83.38
2022-12-01T09:54:59.128Z,82.72
2022-12-01T09:57:33.051Z,82.63
2022-12-01T10:00:02.993Z,83.00
2022-12-01T10:02:42.776Z,82.45
2022-12-01T10:05:15.658Z,82.11
2022-12-01T10:07:49.163Z,80.50
2022-12-01T10:10:36.602Z,80.65
2022-12-01T10:13:12.769Z,80.59
2022-12-01T10:15:46.505Z,80.96
2022-12-01T10:18:22.681Z,80.36
2022-12-01T10:21:08.812Z,79.74
2022-12-01T10:23:48.315Z,80.23
2022-12-01T10:26:25.356Z,79.70
2022-12-01T10:29:28.780Z,79.58
2022-12-01T10:32:06.930Z,79.82
2022-12-01T10:34:36.774Z,78.87
2022-12-01T10:37:04.251Z,80.01
2022-12-01T10:39:36.294Z,79.63
2022-12-01T10:42:12.962Z,79.55
2022-12-01T10:44:41.034Z,79.27
2022-12-01T10:47:20.432Z,79.54
2022-12-01T10:49:48.109Z,80.37
2022-12-01T10:52:36.230Z,80.35
2022-12-01T10:55:06.489Z,79.77
2022-12-01T10:57:33.961Z,78.66
2022-12-01T11:00:07.219Z,78.70
2022-12-01T11:02:35.497Z,79.43
2022-12-01T11:05:07.965Z,82.20
2022-12-01T11:07:42.754Z,81.42
2022-12-01T11:10:33.971Z,80.65
2022-12-01T11:13:24.118Z,80.52
2022-12-01T11:15:52.325Z,78.91
2022-12-01T11:18:39.519Z,78.08
2022-12-01T11:21:27.750Z,77.25
2022-12-01T11:23:56.165Z,78.10
2022-12-01T11:26:25.668Z,78.30
2022-12-01T11:29:15.913Z,79.52
2022-12-01T11:31:48.855Z,79.96
2022-12-01T11:34:23.512Z,78.82
2022-12-01T11:36:55.979Z,78.55
2022-12-01T11:39:36.832Z,77.71
2022-12-01T11:42:19.889Z,78.10
2022-12-01T11:44:56.689Z,78.58
2022-12-01T11:47:26.473Z,78.95
2022-12-01T11:50:16.796Z,79.01
2022-12-01T11:52:47.432Z,79.21
2022-12-01T11:55:15.152Z,78.23
2022-12-01T11:57:48.696Z,78.67
2022-12-01T12:00:22.175Z,78.32
2022-12-01T12:03:14.332Z,78.65
2022-12-01T12:09:28.700Z,77.31
2022-12-01T12:12:25.436Z,80.52
2022-12-01T12:15:15.875Z,79.79
2022-12-01T12:18:08.633Z,79.29
2022-12-01T12:20:54.940Z,79.57
2022-12-01T12:23:50.956Z,78.83
2022-12-01T12:26:24.389Z,79.05
2022-12-01T12:29:14.071Z,79.17
2022-12-01T12:31:54.033Z,79.41
2022-12-01T12:34:31.911Z,78.75
2022-12-01T12:37:20.282Z,78.23
2022-12-01T12:39:54.727Z,78.17
2022-12-01T12:42:35.182Z,78.07
2022-12-01T12:45:14.194Z,78.49
2022-12-01T12:47:41.358Z,77.80
2022-12-01T12:50:21.156Z,77.90
2022-12-01T12:53:15.651Z,77.34
2022-12-01T12:55:50.095Z,77.54
2022-12-01T12:58:26.685Z,77.65
2022-12-01T13:00:59.284Z,76.61
2022-12-01T13:03:47.738Z,78.00
2022-12-01T13:06:22.458Z,77.64
2022-12-01T13:08:59.727Z,76.85
2022-12-01T13:11:33.879Z,76.26
2022-12-01T13:14:20.673Z,76.82
2022-12-01T13:16:49.780Z,76.46
2022-12-01T13:19:22.614Z,77.18
2022-12-01T13:21:51.286Z,77.81
2022-12-01T13:24:24.011Z,79.07
2022-12-01T13:27:04.987Z,78.36
2022-12-01T13:29:47.650Z,78.19
2022-12-01T13:32:31.999Z,78.02
2022-12-01T13:35:00.637Z,78.74
2022-12-01T13:37:36.448Z,78.57
2022-12-01T13:40:26.381Z,78.67
2022-12-01T13:43:10.322Z,78.60
2022-12-01T13:45:40.223Z,78.21
2022-12-01T13:48:28.970Z,78.17
2022-12-01T13:51:01.781Z,78.30
2022-12-01T13:53:34.666Z,77.95
2022-12-01T13:56:17.445Z,79.09
2022-12-01T13:58:48.920Z,79.12
2022-12-01T14:01:23.131Z,77.84
2022-12-01T14:04:03.001Z,78.49
2022-12-01T14:06:36.122Z,79.55
2022-12-01T14:09:15.406Z,79.90
2022-12-01T14:11:58.272Z,79.34
2022-12-01T14:14:27.423Z,78.82
2022-12-01T14:16:58.704Z,80.46
2022-12-01T14:19:46.297Z,79.71
2022-12-01T14:22:32.466Z,78.67
2022-12-01T14:25:00.174Z,78.75
2022-12-01T14:27:43.722Z,78.94
2022-12-01T14:30:45.866Z,79.24
2022-12-01T14:33:51.252Z,80.61
2022-12-01T14:36:24.529Z,78.79
2022-12-01T14:39:23.344Z,79.12
2022-12-01T14:41:55.115Z,79.69
2022-12-01T14:44:38.506Z,79.69
2022-12-01T14:47:11.883Z,79.61
2022-12-01T14:50:10.116Z,77.89
2022-12-01T14:52:40.368Z,76.95
2022-12-01T14:55:12.946Z,77.81
2022-12-01T14:57:44.862Z,78.52
2022-12-01T15:00:25.122Z,77.71
2022-12-01T15:02:59.425Z,77.14
2022-12-01T15:05:31.565Z,76.10
2022-12-01T15:08:33.771Z,76.43
2022-12-01T15:10:52.519Z,76.49
2022-12-01T15:13:24.910Z,76.25
2022-12-01T15:16:00.789Z,76.26
2022-12-01T15:18:37.088Z,77.31
2022-12-01T15:21:10.170Z,77.87
2022-12-01T15:23:37.729Z,77.61
2022-12-01T15:26:05.111Z,76.66
2022-12-01T15:28:34.462Z,76.47
2022-12-01T15:31:13.342Z,76.62
2022-12-01T15:33:49.403Z,76.22
2022-12-01T15:36:16.996Z,75.65
2022-12-01T15:38:46.434Z,76.07
2022-12-01T15:41:28.933Z,76.22
2022-12-01T15:43:59.049Z,78.45
2022-12-01T15:46:30.205Z,77.51
2022-12-01T15:49:16.616Z,78.12
2022-12-01T15:51:43.959Z,77.51
2022-12-01T15:54:24.909Z,76.78
2022-12-01T15:56:55.006Z,76.59
2022-12-01T15:59:33.743Z,77.03
2022-12-01T16:02:07.404Z,77.48
2022-12-01T16:04:37.213Z,77.89
2022-12-01T16:07:07.993Z,77.64
2022-12-01T16:09:37.581Z,76.98
2022-12-01T16:12:17.553Z,76.70
2022-12-01T16:14:49.595Z,77.98
2022-12-01T16:17:17.494Z,77.56
2022-12-01T16:19:45.499Z,78.11
2022-12-01T16:22:19.275Z,78.01
2022-12-01T16:24:52.963Z,77.25
2022-12-01T16:27:27.081Z,77.23
2022-12-01T16:29:58.240Z,78.06
2022-12-01T16:32:36.365Z,78.95
2022-12-01T16:35:21.524Z,78.59
2022-12-01T16:37:48.997Z,79.60
2022-12-01T16:40:16.985Z,78.98
2022-12-01T16:42:44.197Z,78.67
2022-12-01T16:45:15.725Z,79.40
2022-12-01T16:47:44.144Z,79.28
2022-12-01T16:50:16.278Z,79.34
2022-12-01T16:52:45.229Z,78.46
2022-12-01T16:55:43.832Z,77.92
2022-12-01T16:58:11.125Z,78.20
2022-12-01T17:00:38.431Z,77.42
2022-12-01T17:03:06.278Z,78.39
2022-12-01T17:05:34.308Z,79.61
2022-12-01T17:08:01.555Z,79.02
2022-12-01T17:10:28.905Z,79.83
2022-12-01T17:12:56.423Z,80.35
2022-12-01T17:15:23.860Z,80.06
2022-12-01T17:17:51.422Z,80.48
2022-12-01T17:20:18.705Z,79.87
2022-12-01T17:22:45.938Z,80.65
2022-12-01T17:25:13.138Z,80.77
2022-12-01T17:27:41.909Z,81.71
2022-12-01T17:30:10.185Z,82.02
2022-12-01T17:32:37.387Z,82.08
2022-12-01T17:35:05.067Z,81.74
2022-12-01T17:37:32.279Z,81.62
2022-12-01T17:40:00.445Z,81.84
2022-12-01T17:42:31.153Z,81.55
2022-12-01T17:44:58.721Z,81.28
2022-12-01T17:47:27.147Z,81.82
2022-12-01T17:49:54.550Z,81.42
2022-12-01T17:52:26.720Z,80.95
2022-12-01T17:54:56.450Z,83.38
2022-12-01T17:57:23.812Z,82.36
2022-12-01T17:59:50.992Z,82.14
2022-12-01T18:02:18.501Z,83.56
2022-12-01T18:04:46.779Z,83.28
2022-12-01T18:07:14.027Z,83.16
2022-12-01T18:09:41.475Z,83.71
2022-12-01T18:12:08.687Z,82.50
2022-12-01T18:14:37.555Z,82.75
2022-12-01T18:17:05.612Z,83.08
2022-12-01T18:19:33.232Z,83.51
2022-12-01T18:22:00.502Z,83.40
2022-12-01T18:24:27.912Z,83.86
2022-12-01T18:26:56.439Z,83.34
2022-12-01T18:29:26.012Z,83.15
2022-12-01T18:31:57.379Z,82.91
2022-12-01T18:34:31.300Z,83.20
2022-12-01T18:36:58.753Z,83.37
2022-12-01T18:39:26.047Z,83.54
2022-12-01T18:41:53.426Z,83.46
2022-12-01T18:44:21.021Z,83.25
2022-12-01T18:46:48.257Z,83.30
2022-12-01T18:49:18.378Z,82.93
2022-12-01T18:51:45.507Z,83.33
2022-12-01T18:54:14.559Z,83.17
2022-12-01T18:56:42.286Z,83.33
2022-12-01T18:59:10.494Z,83.81
2022-12-01T19:01:40.190Z,83.63
2022-12-01T19:04:10.930Z,82.81
2022-12-01T19:06:39.776Z,82.48
2022-12-01T19:09:09.435Z,81.61
2022-12-01T19:11:37.868Z,81.91
2022-12-01T19:14:05.071Z,81.38
2022-12-01T19:16:33.320Z,81.34
2022-12-01T19:19:01.183Z,81.39
2022-12-01T19:21:28.438Z,80.92
2022-12-01T19:23:56.301Z,80.80
2022-12-01T19:26:24.043Z,80.12
2022-12-01T19:28:51.637Z,79.42
2022-12-01T19:31:22.629Z,80.09
2022-12-01T19:33:51.551Z,80.09
2022-12-01T19:36:20.752Z,80.19
2022-12-01T19:38:48.300Z,79.33
2022-12-01T19:41:16.164Z,78.44
2022-12-01T19:43:43.706Z,78.77
2022-12-01T19:46:14.965Z,78.05
2022-12-01T19:48:43.108Z,77.82
2022-12-01T19:51:25.170Z,78.21
2022-12-01T19:53:53.384Z,77.80
2022-12-01T19:56:21.134Z,77.50
2022-12-01T19:58:48.367Z,77.31
2022-12-01T20:01:17.003Z,77.45
2022-12-01T20:03:49.849Z,77.84
2022-12-01T20:06:22.684Z,77.33
2022-12-01T20:08:50.581Z,78.19
2022-12-01T20:11:18.180Z,78.00
2022-12-01T20:13:46.839Z,77.92
2022-12-01T20:16:17.152Z,78.09
2022-12-01T20:18:44.862Z,77.94
2022-12-01T20:21:18.959Z,77.92
2022-12-01T20:23:48.376Z,78.17
2022-12-01T20:26:17.482Z,78.28
2022-12-01T20:28:46.551Z,77.50
2022-12-01T20:31:22.967Z,78.15
2022-12-01T20:33:52.736Z,77.94
2022-12-01T20:36:20.076Z,77.17
2022-12-01T20:38:47.635Z,77.33
2022-12-01T20:41:15.212Z,77.84
2022-12-01T20:43:42.731Z,78.53
2022-12-01T20:46:11.464Z,78.56
2022-12-01T20:48:38.892Z,78.86
2022-12-01T20:51:07.516Z,78.49
2022-12-01T20:53:35.773Z,77.95
2022-12-01T20:56:08.675Z,77.70
2022-12-01T20:58:37.947Z,77.46
2022-12-01T21:01:18.682Z,77.04
2022-12-01T21:03:46.398Z,76.82
2022-12-01T21:06:15.025Z,76.33
2022-12-01T21:08:43.886Z,75.71
2022-12-01T21:11:52.684Z,75.55
2022-12-01T21:14:41.580Z,75.16
2022-12-01T21:17:32.399Z,74.20
2022-12-01T21:20:12.931Z,74.08
2022-12-01T21:22:40.236Z,73.43
2022-12-01T21:25:15.743Z,71.42
2022-12-01T21:27:42.913Z,71.57
2022-12-01T21:30:22.028Z,72.01
2022-12-01T21:32:49.597Z,71.68
2022-12-01T21:35:25.074Z,70.37
2022-12-01T21:38:04.626Z,70.21
2022-12-01T21:40:31.918Z,70.10
2022-12-01T21:43:01.807Z,69.67
2022-12-01T21:45:32.031Z,69.83
2022-12-01T21:48:20.037Z,69.75
2022-12-01T21:50:52.409Z,69.61
2022-12-01T21:53:21.666Z,70.20
2022-12-01T21:55:49.321Z,71.11
2022-12-01T21:58:24.551Z,71.57
2022-12-01T22:00:52.943Z,71.97
2022-12-01T22:03:39.782Z,72.04
2022-12-01T22:09:01.562Z,72.10
2022-12-01T22:11:30.429Z,72.34
2022-12-01T22:14:19.154Z,71.66
2022-12-01T22:17:01.529Z,71.41
2022-12-01T22:19:31.412Z,71.67
2022-12-01T22:22:03.076Z,70.92
2022-12-01T22:24:39.887Z,70.97
2022-12-01T22:27:28.476Z,70.96
2022-12-01T22:29:58.930Z,70.32
2022-12-01T22:32:35.383Z,71.13
2022-12-01T22:35:26.224Z,71.23
2022-12-01T22:37:57.398Z,71.34
2022-12-01T22:40:54.936Z,70.95
2022-12-01T22:43:30.484Z,70.98
2022-12-01T22:46:07.380Z,70.97
2022-12-01T22:48:40.053Z,70.61
2022-12-01T22:51:13.763Z,70.81
2022-12-01T22:53:42.930Z,70.86
2022-12-01T22:56:38.109Z,71.09
2022-12-01T22:59:28.010Z,71.32
2022-12-01T23:01:57.499Z,71.81
2022-12-01T23:04:28.630Z,71.79
2022-12-01T23:07:00.902Z,71.32
2022-12-01T23:09:32.637Z,70.96
2022-12-01T23:12:22.190Z,71.12
2022-12-01T23:14:52.979Z,71.38
2022-12-01T23:17:20.351Z,71.56
2022-12-01T23:19:49.122Z,71.88
2022-12-01T23:22:16.818Z,71.74
2022-12-01T23:24:44.106Z,71.69
2022-12-01T23:27:11.491Z,71.90
2022-12-01T23:29:38.678Z,73.20
2022-12-01T23:32:06.174Z,74.00
2022-12-01T23:34:33.881Z,74.19
2022-12-01T23:37:01.087Z,74.40
2022-12-01T23:39:35.443Z,74.55
2022-12-01T23:42:03.226Z,74.84
2022-12-01T23:44:38.871Z,75.41
2022-12-01T23:47:22.628Z,75.53
2022-12-01T23:49:58.100Z,75.13
2022-12-01T23:52:32.687Z,75.92
2022-12-01T23:55:00.112Z,76.04
2022-12-01T23:57:27.490Z,76.63
2022-12-01T23:59:58.924Z,76.14
